CCA0830 ZLLL-ZSAM
Flight info
| Callsign | CCA0830 |
|---|---|
| Flight time | N/A |
| Altitude | 31100 |
| Route | UKBIN W214 HO W154 XODAS ZNX PIKEM TOGOG V111 DSY RUXIL WTM B213 WHA R343 SAGUD W50 XSH W105 NCH LEKUV TEBON |
| Aircraft | A320/L-V/N |
Departure
| Time | 2026-04-28 12:48 |
|---|---|
| Airport | Lanzhou Zhongchuan International Airport (ZLLL) |
Arrival
| Time | N/A |
|---|---|
| Airport | Xiamen Gaoqi International Airport (ZSAM) |
| Time | Latitude | Longitude | Altitude | Speed | Heading |
|---|---|---|---|---|---|
| 2026-04-28 12:29 | 36.52720 | 103.63896 | 6388 ft | 0 kts | 292° |
| 2026-04-28 12:35 | 36.52720 | 103.63897 | 6386 ft | 1 kts | 292° |
| 2026-04-28 12:35 | 36.52717 | 103.63910 | 6385 ft | 3 kts | 286° |
| 2026-04-28 12:35 | 36.52710 | 103.63933 | 6383 ft | 3 kts | 297° |
| 2026-04-28 12:35 | 36.52700 | 103.63955 | 6386 ft | 3 kts | 307° |
| 2026-04-28 12:36 | 36.52687 | 103.63973 | 6387 ft | 3 kts | 323° |
| 2026-04-28 12:36 | 36.52670 | 103.63985 | 6387 ft | 3 kts | 358° |
| 2026-04-28 12:36 | 36.52660 | 103.63984 | 6386 ft | 0 kts | 22° |
| 2026-04-28 12:39 | 36.52668 | 103.63988 | 6386 ft | 2 kts | 22° |
| 2026-04-28 12:40 | 36.52687 | 103.63998 | 6387 ft | 4 kts | 22° |
| 2026-04-28 12:40 | 36.52718 | 103.64013 | 6385 ft | 6 kts | 22° |
| 2026-04-28 12:40 | 36.52759 | 103.64021 | 6386 ft | 6 kts | 355° |
| 2026-04-28 12:40 | 36.52806 | 103.64016 | 6388 ft | 7 kts | 355° |
| 2026-04-28 12:41 | 36.52861 | 103.64010 | 6385 ft | 8 kts | 355° |
| 2026-04-28 12:41 | 36.52922 | 103.64009 | 6388 ft | 9 kts | 358° |
| 2026-04-28 12:41 | 36.52988 | 103.64004 | 6388 ft | 10 kts | 355° |
| 2026-04-28 12:41 | 36.53059 | 103.63999 | 6390 ft | 10 kts | 358° |
| 2026-04-28 12:42 | 36.53130 | 103.64008 | 6391 ft | 10 kts | 32° |
| 2026-04-28 12:42 | 36.53150 | 103.64090 | 6390 ft | 11 kts | 86° |
| 2026-04-28 12:42 | 36.53171 | 103.64170 | 6391 ft | 4 kts | 15° |
| 2026-04-28 12:42 | 36.53204 | 103.64176 | 6392 ft | 5 kts | 31° |
| 2026-04-28 12:43 | 36.53225 | 103.64217 | 6392 ft | 7 kts | 70° |
| 2026-04-28 12:43 | 36.53257 | 103.64262 | 6392 ft | 7 kts | 4° |
| 2026-04-28 12:43 | 36.53310 | 103.64255 | 6392 ft | 8 kts | 357° |
| 2026-04-28 12:43 | 36.53371 | 103.64251 | 6393 ft | 9 kts | 357° |
| 2026-04-28 12:44 | 36.53436 | 103.64247 | 6394 ft | 10 kts | 357° |
| 2026-04-28 12:44 | 36.53509 | 103.64242 | 6395 ft | 11 kts | 356° |
| 2026-04-28 12:44 | 36.53588 | 103.64236 | 6397 ft | 12 kts | 356° |
| 2026-04-28 12:44 | 36.53671 | 103.64232 | 6398 ft | 12 kts | 359° |
| 2026-04-28 12:45 | 36.53757 | 103.64227 | 6401 ft | 12 kts | 358° |
| 2026-04-28 12:45 | 36.53842 | 103.64227 | 6401 ft | 10 kts | 18° |
| 2026-04-28 12:45 | 36.53859 | 103.64261 | 6401 ft | 1 kts | 83° |
| 2026-04-28 12:46 | 36.53859 | 103.64262 | 6401 ft | 1 kts | 83° |
| 2026-04-28 12:46 | 36.53861 | 103.64275 | 6401 ft | 2 kts | 83° |
| 2026-04-28 12:46 | 36.53863 | 103.64307 | 6402 ft | 6 kts | 86° |
| 2026-04-28 12:46 | 36.53869 | 103.64391 | 6403 ft | 12 kts | 91° |
| 2026-04-28 12:47 | 36.53818 | 103.64427 | 6402 ft | 11 kts | 177° |
| 2026-04-28 12:47 | 36.53670 | 103.64442 | 6400 ft | 43 kts | 175° |
| 2026-04-28 12:47 | 36.53207 | 103.64462 | 6391 ft | 90 kts | 177° |
| 2026-04-28 12:47 | 36.52449 | 103.64514 | 6383 ft | 126 kts | 178° |
| 2026-04-28 12:48 | 36.51467 | 103.64579 | 6357 ft | 155 kts | 178° |
| 2026-04-28 12:48 | 36.50328 | 103.64632 | 6468 ft | 163 kts | 179° |
| 2026-04-28 12:48 | 36.49307 | 103.64740 | 7015 ft | 142 kts | 176° |
| 2026-04-28 12:48 | 36.48236 | 103.64906 | 7196 ft | 166 kts | 172° |
| 2026-04-28 12:49 | 36.47004 | 103.65136 | 7535 ft | 201 kts | 171° |
| 2026-04-28 12:49 | 36.45619 | 103.65196 | 8457 ft | 200 kts | 177° |
| 2026-04-28 12:49 | 36.44162 | 103.65183 | 9052 ft | 220 kts | 178° |
| 2026-04-28 12:49 | 36.42541 | 103.65197 | 9546 ft | 245 kts | 176° |
| 2026-04-28 12:50 | 36.37070 | 103.65473 | 12079 ft | 267 kts | 176° |
| 2026-04-28 12:50 | 36.35209 | 103.65590 | 13093 ft | 268 kts | 176° |
| 2026-04-28 12:51 | 36.33337 | 103.65709 | 14072 ft | 271 kts | 176° |
| 2026-04-28 12:51 | 36.31487 | 103.66216 | 14867 ft | 278 kts | 156° |
| 2026-04-28 12:51 | 36.29916 | 103.67630 | 15501 ft | 292 kts | 131° |
| 2026-04-28 12:51 | 36.28928 | 103.69860 | 16160 ft | 303 kts | 105° |
| 2026-04-28 12:52 | 36.28781 | 103.72466 | 16900 ft | 307 kts | 79° |
| 2026-04-28 12:52 | 36.29513 | 103.74935 | 17642 ft | 308 kts | 53° |
| 2026-04-28 12:52 | 36.30991 | 103.76814 | 18413 ft | 305 kts | 28° |
| 2026-04-28 12:52 | 36.32931 | 103.77754 | 19092 ft | 299 kts | 3° |
| 2026-04-28 12:53 | 36.34974 | 103.77598 | 19728 ft | 294 kts | 339° |
| 2026-04-28 12:53 | 36.36823 | 103.76553 | 20397 ft | 295 kts | 334° |
| 2026-04-28 12:53 | 36.38852 | 103.76037 | 21068 ft | 305 kts | 357° |
| 2026-04-28 12:53 | 36.40959 | 103.76600 | 21705 ft | 318 kts | 20° |
| 2026-04-28 12:54 | 36.42835 | 103.78182 | 22084 ft | 341 kts | 41° |
| 2026-04-28 12:54 | 36.44245 | 103.80680 | 22262 ft | 368 kts | 63° |
| 2026-04-28 12:54 | 36.44930 | 103.83835 | 22462 ft | 391 kts | 83° |
| 2026-04-28 12:54 | 36.44778 | 103.87284 | 22641 ft | 412 kts | 102° |
| 2026-04-28 12:55 | 36.43792 | 103.90695 | 22835 ft | 429 kts | 119° |
| 2026-04-28 12:55 | 36.42046 | 103.93734 | 23251 ft | 436 kts | 135° |
| 2026-04-28 12:55 | 36.39716 | 103.96119 | 23879 ft | 436 kts | 151° |
| 2026-04-28 12:55 | 36.38866 | 103.96743 | 24042 ft | 436 kts | 154° |